Time;durP1;ratioP1;P1;durP2;ratioP2;P2;SDS_P1;SDS_P2;PMS_P1;PMS_P2;Temp;Humidity;BMP_temperature;BMP_pressure;BME280_temperature;BME280_humidity;BME280_pressure;Samples;Min_cycle;Max_cycle;Signal;HPM_P1;HPM_P2
2023/02/15 00:02:26;;;;;;;97.32;25.58;;;-1.10;100.00;;;;;;4999952;28;20147;-77
2023/02/15 00:04:55;;;;;;;89.28;23.25;;;-1.10;100.00;;;;;;4999892;28;20046;-77
2023/02/15 00:07:22;;;;;;;86.75;24.52;;;-1.10;100.00;;;;;;5010738;28;20061;-77
2023/02/15 00:09:49;;;;;;;76.47;22.95;;;-1.20;100.00;;;;;;4998866;28;20053;-77
2023/02/15 00:12:16;;;;;;;89.40;24.90;;;-1.20;100.00;;;;;;5011586;28;20176;-77
2023/02/15 00:14:43;;;;;;;88.50;25.23;;;-1.20;100.00;;;;;;5001215;28;20548;-78
2023/02/15 00:17:10;;;;;;;72.60;22.75;;;-1.20;100.00;;;;;;4996080;28;20522;-78
2023/02/15 00:19:37;;;;;;;83.70;25.52;;;-1.20;100.00;;;;;;4996045;28;20053;-78
2023/02/15 00:22:04;;;;;;;85.03;24.08;;;-1.20;100.00;;;;;;5006490;28;20510;-78
2023/02/15 00:24:31;;;;;;;85.97;25.42;;;-1.20;100.00;;;;;;5006907;28;20052;-77
2023/02/15 00:26:58;;;;;;;104.90;31.40;;;-1.20;100.00;;;;;;5004722;28;20513;-77
2023/02/15 00:29:25;;;;;;;128.95;40.65;;;-1.30;100.00;;;;;;5014926;28;20049;-78
2023/02/15 00:31:52;;;;;;;145.93;38.88;;;-1.30;100.00;;;;;;4995784;28;20076;-79
2023/02/15 00:34:22;;;;;;;115.57;34.17;;;-1.30;100.00;;;;;;4995091;28;20132;-78
2023/02/15 00:36:49;;;;;;;107.28;28.85;;;-1.30;100.00;;;;;;5001522;28;20053;-79
2023/02/15 00:39:17;;;;;;;99.47;26.90;;;-1.30;100.00;;;;;;4999081;28;20058;-80
2023/02/15 00:41:46;;;;;;;89.85;26.90;;;-1.30;100.00;;;;;;4993992;28;20454;-79
2023/02/15 00:44:13;;;;;;;102.03;30.20;;;-1.40;100.00;;;;;;4995196;28;20491;-80
2023/02/15 00:46:40;;;;;;;107.57;31.45;;;-1.40;100.00;;;;;;5010897;28;20431;-78
2023/02/15 00:49:07;;;;;;;116.22;32.35;;;-1.40;100.00;;;;;;4999816;28;20067;-80
2023/02/15 00:51:33;;;;;;;111.38;30.83;;;-1.40;100.00;;;;;;5008989;28;20061;-79
2023/02/15 00:54:01;;;;;;;101.38;27.60;;;-1.40;100.00;;;;;;5013113;28;20081;-79
2023/02/15 00:56:31;;;;;;;104.78;28.30;;;-1.40;100.00;;;;;;4993640;28;20069;-79
2023/02/15 00:58:57;;;;;;;94.25;27.13;;;-1.40;100.00;;;;;;5000099;28;20041;-79
2023/02/15 01:01:25;;;;;;;91.68;28.27;;;-1.50;100.00;;;;;;5011932;28;20053;-78
2023/02/15 01:03:52;;;;;;;96.82;29.70;;;-1.50;100.00;;;;;;5011871;28;20910;-79
2023/02/15 01:06:19;;;;;;;101.10;27.17;;;-1.50;100.00;;;;;;5007641;28;20074;-80
2023/02/15 01:08:47;;;;;;;156.80;41.97;;;-1.50;100.00;;;;;;4991358;28;20430;-79
2023/02/15 01:11:21;;;;;;;189.68;55.40;;;-1.60;100.00;;;;;;4996149;28;20598;-79
2023/02/15 01:13:55;;;;;;;243.68;62.72;;;-1.60;100.00;;;;;;4989514;28;20050;-79
2023/02/15 01:16:23;;;;;;;276.65;73.82;;;-1.60;100.00;;;;;;5000099;28;20342;-79
2023/02/15 01:18:50;;;;;;;265.08;74.40;;;-1.60;100.00;;;;;;4996519;28;20073;-79
2023/02/15 01:21:20;;;;;;;212.35;57.00;;;-1.70;100.00;;;;;;5011906;28;20479;-80
2023/02/15 01:23:47;;;;;;;173.40;46.00;;;-1.70;100.00;;;;;;5013729;28;20077;-79
2023/02/15 01:26:15;;;;;;;129.02;38.90;;;-1.80;100.00;;;;;;5013366;28;20403;-78
2023/02/15 01:28:42;;;;;;;123.95;36.72;;;-1.80;100.00;;;;;;5009424;28;20632;-79
2023/02/15 01:31:19;;;;;;;105.88;30.88;;;-1.80;100.00;;;;;;5001322;28;20096;-79
2023/02/15 01:33:47;;;;;;;101.90;27.77;;;-1.80;100.00;;;;;;5009094;28;20144;-80
2023/02/15 01:36:14;;;;;;;82.13;23.10;;;-1.80;100.00;;;;;;4996039;28;20592;-79
2023/02/15 01:38:41;;;;;;;92.45;24.95;;;-1.80;100.00;;;;;;4993328;28;20062;-79
2023/02/15 01:41:22;;;;;;;89.57;24.75;;;-1.90;100.00;;;;;;4998277;28;20065;-79
2023/02/15 01:43:53;;;;;;;82.82;22.40;;;-1.90;100.00;;;;;;4996052;28;20045;-79
2023/02/15 01:46:26;;;;;;;79.30;22.58;;;-1.90;100.00;;;;;;4998831;28;20375;-79
2023/02/15 01:49:00;;;;;;;78.53;22.35;;;-1.90;100.00;;;;;;4991993;28;20137;-79
2023/02/15 01:51:30;;;;;;;77.13;21.65;;;-2.00;100.00;;;;;;4995460;28;20422;-79
2023/02/15 01:54:24;;;;;;;75.35;22.10;;;-2.00;100.00;;;;;;4999138;28;20521;-79
2023/02/15 01:56:52;;;;;;;76.05;22.02;;;-2.10;100.00;;;;;;4998961;28;20050;-79
2023/02/15 01:59:22;;;;;;;76.43;21.80;;;-2.10;100.00;;;;;;4996973;28;20498;-79
2023/02/15 02:01:52;;;;;;;70.72;21.45;;;-2.10;100.00;;;;;;5009047;28;20049;-79
2023/02/15 02:04:46;;;;;;;76.57;22.98;;;-2.10;100.00;;;;;;5000565;28;20060;-79
2023/02/15 02:07:16;;;;;;;79.18;21.88;;;-2.10;100.00;;;;;;4992626;28;20054;-80
2023/02/15 02:09:44;;;;;;;69.40;21.10;;;-2.10;100.00;;;;;;5004320;28;20487;-79
2023/02/15 02:12:12;;;;;;;82.70;21.83;;;-2.10;100.00;;;;;;5004533;28;20491;-80
2023/02/15 02:14:40;;;;;;;72.03;22.02;;;-2.10;100.00;;;;;;5010449;28;20076;-79
2023/02/15 02:17:06;;;;;;;78.75;21.65;;;-2.20;100.00;;;;;;4995889;28;20088;-80
2023/02/15 02:19:58;;;;;;;79.47;23.15;;;-2.20;100.00;;;;;;4993979;28;20042;-79
2023/02/15 02:22:53;;;;;;;74.00;20.83;;;-2.20;100.00;;;;;;4994372;28;20046;-79
2023/02/15 02:25:31;;;;;;;79.33;23.00;;;-2.20;100.00;;;;;;4990786;28;20464;-79
2023/02/15 02:28:17;;;;;;;87.25;24.00;;;-2.10;100.00;;;;;;4994038;28;20132;-79
2023/02/15 02:31:05;;;;;;;77.75;22.77;;;-2.10;100.00;;;;;;4992559;28;20423;-78
2023/02/15 02:33:48;;;;;;;82.70;21.58;;;-2.10;100.00;;;;;;4988236;28;20630;-79
2023/02/15 02:36:55;;;;;;;92.40;22.42;;;-2.10;100.00;;;;;;4985191;28;20405;-80
2023/02/15 02:39:27;;;;;;;77.10;21.98;;;-2.10;100.00;;;;;;4964460;28;20066;-77
2023/02/15 02:42:11;;;;;;;89.32;23.98;;;-2.10;100.00;;;;;;4988101;28;20072;-78
2023/02/15 02:45:04;;;;;;;94.00;24.77;;;-2.10;100.00;;;;;;4995636;28;20061;-78
2023/02/15 02:47:52;;;;;;;90.53;23.85;;;-2.10;100.00;;;;;;4982222;28;20137;-78
2023/02/15 02:50:26;;;;;;;82.55;22.27;;;-2.10;100.00;;;;;;5002574;28;20127;-79
2023/02/15 02:52:55;;;;;;;78.50;24.73;;;-2.10;100.00;;;;;;5013958;28;20056;-79
2023/02/15 02:55:24;;;;;;;99.05;26.33;;;-2.10;100.00;;;;;;5003672;28;20059;-78
2023/02/15 02:57:59;;;;;;;83.95;24.45;;;-2.10;100.00;;;;;;5013272;28;20053;-78
2023/02/15 03:00:27;;;;;;;;;;;-2.10;100.00;;;;;;5000741;28;20049;-79
2023/02/15 03:03:04;;;;;;;93.32;24.02;;;-2.00;100.00;;;;;;5014087;28;20329;-80
2023/02/15 03:05:34;;;;;;;96.13;26.30;;;-2.00;100.00;;;;;;4987331;28;20046;-78
2023/02/15 03:08:05;;;;;;;97.80;25.58;;;-2.00;100.00;;;;;;4994544;28;20297;-79
2023/02/15 03:10:34;;;;;;;92.30;26.52;;;-2.00;100.00;;;;;;5007729;28;20057;-79
2023/02/15 03:13:02;;;;;;;97.05;25.90;;;-2.00;100.00;;;;;;4997508;28;20055;-78
2023/02/15 03:18:27;;;;;;;97.13;25.45;;;-2.00;100.00;;;;;;5010464;28;20073;-79
2023/02/15 03:20:55;;;;;;;87.07;26.55;;;-1.90;100.00;;;;;;5000432;28;20255;-79
2023/02/15 03:23:25;;;;;;;91.18;25.02;;;-2.00;100.00;;;;;;4991878;28;20054;-79
2023/02/15 03:26:02;;;;;;;91.43;25.75;;;-2.00;100.00;;;;;;5002459;28;20050;-79
2023/02/15 03:28:51;;;;;;;86.47;25.15;;;-2.00;100.00;;;;;;5011099;28;20057;-78
2023/02/15 03:31:21;;;;;;;105.35;27.23;;;-2.00;100.00;;;;;;5000678;28;20591;-77
2023/02/15 03:34:01;;;;;;;96.72;24.98;;;-2.00;100.00;;;;;;5012908;28;20054;-77
2023/02/15 03:36:41;;;;;;;86.20;24.23;;;-2.10;100.00;;;;;;4999132;28;20538;-78
2023/02/15 03:39:29;;;;;;;95.18;23.60;;;-2.10;100.00;;;;;;5010863;28;20058;-77
2023/02/15 03:42:08;;;;;;;101.15;26.08;;;-2.10;100.00;;;;;;4997752;28;20441;-77
2023/02/15 03:44:56;;;;;;;88.68;25.13;;;-2.10;100.00;;;;;;5012536;28;20053;-78
2023/02/15 03:47:34;;;;;;;81.38;25.10;;;-2.20;100.00;;;;;;5009096;28;20046;-77
2023/02/15 03:51:33;;;;;;;86.47;25.60;;;-2.10;100.00;;;;;;5009940;28;20128;-77
2023/02/15 03:52:56;;;;;;;75.45;23.05;;;-2.20;100.00;;;;;;5005010;28;20065;-77
2023/02/15 03:55:23;;;;;;;85.78;24.38;;;-2.20;100.00;;;;;;5000219;28;20064;-77
2023/02/15 04:03:38;;;;;;;86.03;23.98;;;-2.20;100.00;;;;;;5012541;28;20099;-77
2023/02/15 04:06:05;;;;;;;92.25;25.63;;;-2.20;100.00;;;;;;5007680;28;20047;-77
2023/02/15 04:11:17;;;;;;;96.25;24.80;;;-2.20;100.00;;;;;;5008879;28;20518;-77
2023/02/15 04:13:44;;;;;;;96.85;25.27;;;-2.20;100.00;;;;;;4998763;28;20049;-77
2023/02/15 04:16:11;;;;;;;94.95;25.83;;;-2.10;100.00;;;;;;5004592;28;20062;-78
2023/02/15 04:27:01;;;;;;;104.70;26.25;;;-1.90;100.00;;;;;;5013027;28;20184;-77
2023/02/15 04:29:28;;;;;;;90.82;27.20;;;-1.90;100.00;;;;;;4999257;28;20054;-78
2023/02/15 04:31:57;;;;;;;101.10;27.30;;;-1.80;100.00;;;;;;4995307;28;20522;-79
2023/02/15 04:34:24;;;;;;;95.82;26.05;;;-1.90;100.00;;;;;;4995477;28;20056;-79
2023/02/15 04:36:51;;;;;;;94.18;26.35;;;-1.90;100.00;;;;;;4995992;28;20313;-78
2023/02/15 04:39:18;;;;;;;100.15;26.10;;;-1.90;100.00;;;;;;5007350;28;20087;-78
2023/02/15 04:41:45;;;;;;;91.22;23.60;;;-1.90;100.00;;;;;;4991078;28;20050;-79
2023/02/15 04:44:12;;;;;;;89.68;25.90;;;-1.90;100.00;;;;;;5001085;28;20072;-78
2023/02/15 04:46:39;;;;;;;99.38;27.13;;;-1.90;100.00;;;;;;4994079;28;20557;-78
2023/02/15 04:49:06;;;;;;;99.88;26.73;;;-1.80;100.00;;;;;;4996478;28;20176;-78
2023/02/15 04:51:33;;;;;;;95.55;26.13;;;-1.80;100.00;;;;;;4997752;28;20049;-78
2023/02/15 04:54:00;;;;;;;102.20;25.98;;;-1.80;100.00;;;;;;4993318;28;20057;-78
2023/02/15 04:56:26;;;;;;;91.65;26.33;;;-1.70;100.00;;;;;;5005813;28;20050;-78
2023/02/15 04:58:53;;;;;;;90.55;27.00;;;-1.70;100.00;;;;;;5008092;28;20050;-79
2023/02/15 05:01:20;;;;;;;95.32;26.15;;;-1.70;100.00;;;;;;4993865;28;20505;-78
2023/02/15 05:03:47;;;;;;;104.47;25.17;;;-1.70;100.00;;;;;;4992819;28;20061;-77
2023/02/15 05:06:14;;;;;;;101.53;27.70;;;-1.70;100.00;;;;;;5004853;28;20052;-77
2023/02/15 05:08:41;;;;;;;86.82;26.35;;;-1.70;100.00;;;;;;4989650;28;20049;-77
2023/02/15 05:11:07;;;;;;;95.07;24.48;;;-1.70;100.00;;;;;;5002466;28;20069;-77
2023/02/15 05:13:34;;;;;;;90.18;22.95;;;-1.70;100.00;;;;;;5005258;28;20057;-77
2023/02/15 05:16:01;;;;;;;103.60;26.73;;;-1.70;100.00;;;;;;4993540;28;20050;-77
2023/02/15 05:18:28;;;;;;;94.07;24.05;;;-1.70;100.00;;;;;;4987671;28;20057;-78
2023/02/15 05:20:55;;;;;;;94.40;25.45;;;-1.70;100.00;;;;;;4988228;28;20056;-77
2023/02/15 05:23:22;;;;;;;84.40;24.23;;;-1.80;100.00;;;;;;4989471;28;21219;-78
2023/02/15 05:28:37;;;;;;;88.05;24.65;;;-1.80;100.00;;;;;;5003365;28;20056;-78
2023/02/15 05:31:14;;;;;;;95.75;25.63;;;-1.80;100.00;;;;;;4992623;28;20061;-78
2023/02/15 05:33:41;;;;;;;101.82;26.58;;;-1.90;100.00;;;;;;5003805;28;20060;-78
2023/02/15 05:36:09;;;;;;;91.65;25.88;;;-1.90;100.00;;;;;;4992934;28;20544;-78
2023/02/15 05:38:39;;;;;;;101.82;26.08;;;-1.90;100.00;;;;;;4986177;28;20042;-78
2023/02/15 05:41:07;;;;;;;103.93;26.20;;;-1.90;100.00;;;;;;4993504;28;20641;-78
2023/02/15 05:43:38;;;;;;;105.70;25.42;;;-1.80;100.00;;;;;;4989774;28;20046;-79
2023/02/15 05:46:05;;;;;;;93.40;24.33;;;-1.80;100.00;;;;;;4992716;28;20137;-79
2023/02/15 05:48:32;;;;;;;97.55;25.67;;;-1.80;100.00;;;;;;4994907;28;20359;-79
2023/02/15 05:51:04;;;;;;;92.97;26.42;;;-1.80;100.00;;;;;;5000821;28;20505;-79
2023/02/15 05:53:33;;;;;;;109.72;27.33;;;-1.70;100.00;;;;;;4993432;28;20449;-78
2023/02/15 05:56:01;;;;;;;94.00;25.17;;;-1.60;100.00;;;;;;5008019;28;20049;-78
2023/02/15 05:58:33;;;;;;;108.70;26.58;;;-1.60;100.00;;;;;;5003883;28;20058;-79
2023/02/15 06:01:14;;;;;;;106.95;27.30;;;-1.60;100.00;;;;;;4995025;28;20641;-78
2023/02/15 06:03:41;;;;;;;91.90;23.55;;;-1.60;100.00;;;;;;4989575;28;20096;-82
2023/02/15 06:06:09;;;;;;;97.70;27.40;;;-1.60;100.00;;;;;;4990094;28;20156;-79
2023/02/15 06:08:37;;;;;;;114.43;28.15;;;-1.60;100.00;;;;;;5000238;28;20666;-81
2023/02/15 06:11:05;;;;;;;108.10;26.70;;;-1.60;100.00;;;;;;4994224;28;20136;-81
2023/02/15 06:13:33;;;;;;;97.25;24.02;;;-1.60;100.00;;;;;;4995317;28;20300;-82
2023/02/15 06:16:04;;;;;;;101.63;25.98;;;-1.60;100.00;;;;;;4993067;28;20049;-81
2023/02/15 06:18:31;;;;;;;79.53;23.83;;;-1.60;100.00;;;;;;4994155;28;20076;-80
2023/02/15 06:20:58;;;;;;;108.85;25.73;;;-1.60;100.00;;;;;;4999501;28;20353;-86
2023/02/15 06:23:25;;;;;;;102.03;27.02;;;-1.60;100.00;;;;;;4991947;28;20052;-76
2023/02/15 06:25:52;;;;;;;96.57;27.27;;;-1.60;100.00;;;;;;5003549;28;20428;-77
2023/02/15 06:28:19;;;;;;;106.22;26.67;;;-1.60;100.00;;;;;;4992075;28;20046;-77
2023/02/15 06:30:46;;;;;;;103.80;27.17;;;-1.60;100.00;;;;;;5009248;28;20046;-80
2023/02/15 06:33:13;;;;;;;112.82;27.33;;;-1.60;100.00;;;;;;5004742;28;20054;-74
2023/02/15 06:35:40;;;;;;;106.57;27.25;;;-1.60;100.00;;;;;;5007952;28;20151;-76
2023/02/15 06:38:07;;;;;;;94.65;25.98;;;-1.60;100.00;;;;;;4994269;28;20171;-75
2023/02/15 06:40:33;;;;;;;105.15;25.50;;;-1.60;100.00;;;;;;4992906;28;20045;-82
2023/02/15 06:43:00;;;;;;;95.82;27.05;;;-1.60;100.00;;;;;;4991230;28;20129;-77
2023/02/15 06:45:27;;;;;;;101.25;26.77;;;-1.50;100.00;;;;;;4995527;28;20050;-76
2023/02/15 06:47:54;;;;;;;91.97;25.02;;;-1.50;100.00;;;;;;4987135;28;20556;-76
2023/02/15 06:50:21;;;;;;;99.00;26.70;;;-1.50;100.00;;;;;;5011769;28;20057;-76
2023/02/15 06:52:48;;;;;;;109.65;27.35;;;-1.40;100.00;;;;;;4994948;28;20049;-76
2023/02/15 06:55:15;;;;;;;100.90;26.65;;;-1.40;100.00;;;;;;5005711;28;20061;-77
2023/02/15 06:57:41;;;;;;;103.82;26.27;;;-1.30;100.00;;;;;;5007653;28;20428;-77
2023/02/15 07:00:09;;;;;;;119.78;29.48;;;-1.20;100.00;;;;;;4996195;28;20049;-77
2023/02/15 07:02:36;;;;;;;110.88;29.00;;;-1.10;100.00;;;;;;5005645;28;20047;-77
2023/02/15 07:05:04;;;;;;;120.97;27.55;;;-1.00;100.00;;;;;;5001129;28;20053;-78
2023/02/15 07:07:31;;;;;;;106.38;29.27;;;-0.90;100.00;;;;;;5004358;28;20049;-77
2023/02/15 07:09:58;;;;;;;128.80;30.73;;;-0.80;100.00;;;;;;4993680;28;20057;-78
2023/02/15 07:12:47;;;;;;;134.20;29.75;;;-0.70;100.00;;;;;;4990400;28;20050;-77
2023/02/15 07:15:16;;;;;;;142.52;31.67;;;-0.60;100.00;;;;;;4993947;28;20516;-78
2023/02/15 07:17:44;;;;;;;134.18;30.65;;;-0.50;100.00;;;;;;5006330;28;20041;-77
2023/02/15 07:20:17;;;;;;;145.52;31.10;;;-0.50;100.00;;;;;;4997739;28;20045;-77
2023/02/15 07:22:44;;;;;;;137.82;32.72;;;-0.40;100.00;;;;;;4996132;28;20053;-77
2023/02/15 07:25:12;;;;;;;145.82;30.40;;;-0.30;100.00;;;;;;4993720;28;20057;-78
2023/02/15 07:27:39;;;;;;;138.18;29.63;;;-0.20;100.00;;;;;;4991128;28;20080;-78
2023/02/15 07:30:09;;;;;;;165.98;32.00;;;-0.20;100.00;;;;;;5007392;28;20065;-78
2023/02/15 07:32:36;;;;;;;133.07;32.50;;;-0.10;100.00;;;;;;4998735;28;20057;-78
2023/02/15 07:35:03;;;;;;;137.40;30.33;;;0.00;100.00;;;;;;5003640;28;20053;-79
2023/02/15 07:37:30;;;;;;;145.82;32.22;;;0.00;100.00;;;;;;4994189;28;20049;-79
2023/02/15 07:39:57;;;;;;;132.40;32.17;;;0.00;100.00;;;;;;5002623;28;20049;-78
2023/02/15 07:42:24;;;;;;;151.15;32.13;;;0.00;100.00;;;;;;5008173;28;20284;-78
2023/02/15 07:44:52;;;;;;;160.45;33.75;;;0.10;100.00;;;;;;5009571;28;20421;-78
2023/02/15 07:47:19;;;;;;;155.88;33.85;;;0.20;100.00;;;;;;5005503;28;20205;-78
2023/02/15 07:49:46;;;;;;;148.20;31.70;;;0.20;100.00;;;;;;4989888;28;20068;-77
2023/02/15 07:52:12;;;;;;;147.73;32.70;;;0.30;100.00;;;;;;5009052;28;20526;-78
2023/02/15 07:54:39;;;;;;;150.45;31.00;;;0.30;100.00;;;;;;5009223;28;20431;-77
2023/02/15 07:57:06;;;;;;;162.30;34.83;;;0.40;100.00;;;;;;5008150;28;20053;-78
2023/02/15 07:59:33;;;;;;;150.18;32.75;;;0.50;100.00;;;;;;4996631;28;20049;-78
2023/02/15 08:01:59;;;;;;;174.70;30.95;;;0.50;100.00;;;;;;5015876;28;20050;-77
2023/02/15 08:04:26;;;;;;;160.98;31.83;;;0.60;100.00;;;;;;4988260;28;20050;-77
2023/02/15 08:06:54;;;;;;;140.65;31.90;;;0.60;100.00;;;;;;5004423;28;20042;-76
2023/02/15 08:09:21;;;;;;;169.05;35.20;;;0.70;100.00;;;;;;5015285;28;20074;-77
2023/02/15 08:11:48;;;;;;;159.60;33.47;;;0.80;100.00;;;;;;5000370;28;20982;-77
2023/02/15 08:14:16;;;;;;;164.65;33.83;;;0.80;100.00;;;;;;5010353;28;20060;-80
2023/02/15 08:16:52;;;;;;;170.90;35.60;;;0.90;100.00;;;;;;5003924;28;20050;-80
2023/02/15 08:19:24;;;;;;;170.90;34.30;;;0.90;100.00;;;;;;4995827;28;20049;-79
2023/02/15 08:21:58;;;;;;;167.15;34.67;;;1.00;100.00;;;;;;5008776;28;20064;-78
2023/02/15 08:24:29;;;;;;;152.23;34.13;;;1.00;100.00;;;;;;5013033;28;20165;-79
2023/02/15 08:26:56;;;;;;;177.93;35.85;;;1.10;100.00;;;;;;5002997;28;20128;-84
2023/02/15 08:29:26;;;;;;;186.52;37.58;;;1.30;100.00;;;;;;5005815;28;20745;-85
2023/02/15 08:31:58;;;;;;;159.75;34.55;;;1.30;100.00;;;;;;5010355;28;20049;-81
2023/02/15 08:34:25;;;;;;;166.13;36.58;;;1.30;100.00;;;;;;4990242;28;20050;-81
2023/02/15 08:36:52;;;;;;;182.25;34.67;;;1.40;100.00;;;;;;4987180;28;20092;-78
2023/02/15 08:39:20;;;;;;;160.63;34.88;;;1.50;100.00;;;;;;5014188;28;20057;-78
2023/02/15 08:41:48;;;;;;;179.63;35.53;;;1.60;100.00;;;;;;5007266;28;20065;-79
2023/02/15 08:44:17;;;;;;;173.85;38.30;;;1.70;100.00;;;;;;4993192;28;20082;-78
2023/02/15 08:46:45;;;;;;;176.50;34.60;;;1.80;100.00;;;;;;4995143;28;20041;-79
2023/02/15 08:49:18;;;;;;;162.75;34.83;;;1.80;100.00;;;;;;4991272;28;20490;-78
2023/02/15 08:51:45;;;;;;;180.77;35.30;;;1.90;100.00;;;;;;4997794;28;20403;-79
2023/02/15 08:54:15;;;;;;;166.73;38.20;;;2.00;100.00;;;;;;4999736;28;20049;-76
2023/02/15 08:56:43;;;;;;;159.05;37.50;;;2.10;100.00;;;;;;4997530;28;20060;-78
2023/02/15 08:59:22;;;;;;;150.02;35.83;;;2.20;100.00;;;;;;4995814;28;20060;-78
2023/02/15 09:01:51;;;;;;;170.88;35.40;;;2.20;100.00;;;;;;5003966;28;20156;-78
2023/02/15 09:04:19;;;;;;;167.75;35.45;;;2.30;100.00;;;;;;4998911;28;20089;-78
2023/02/15 09:06:48;;;;;;;146.82;34.13;;;2.30;100.00;;;;;;4988515;28;20479;-78
2023/02/15 09:09:16;;;;;;;153.68;36.80;;;2.40;100.00;;;;;;4996536;28;20345;-77
2023/02/15 09:11:46;;;;;;;153.35;33.03;;;2.50;100.00;;;;;;5005683;28;20073;-79
2023/02/15 09:14:19;;;;;;;154.20;35.03;;;2.50;100.00;;;;;;4995064;28;20490;-78
2023/02/15 09:16:49;;;;;;;163.65;34.30;;;2.50;100.00;;;;;;5004275;28;20049;-78
2023/02/15 09:19:17;;;;;;;159.18;35.85;;;2.50;100.00;;;;;;4994428;28;20057;-78
2023/02/15 09:21:45;;;;;;;151.57;34.22;;;2.50;100.00;;;;;;5000377;28;20658;-77
2023/02/15 09:24:14;;;;;;;158.30;36.45;;;2.50;100.00;;;;;;4991896;28;20046;-78
2023/02/15 09:26:44;;;;;;;136.68;35.60;;;2.60;100.00;;;;;;5004028;28;20053;-78
2023/02/15 09:29:11;;;;;;;153.15;34.35;;;2.70;100.00;;;;;;4991264;28;20046;-79
2023/02/15 09:31:48;;;;;;;149.65;35.55;;;2.90;100.00;;;;;;5011556;28;20134;-79
2023/02/15 09:34:18;;;;;;;149.93;34.28;;;3.00;100.00;;;;;;5011877;28;20050;-79
2023/02/15 09:36:46;;;;;;;147.23;33.70;;;3.10;100.00;;;;;;4995590;28;20129;-79
2023/02/15 09:39:16;;;;;;;143.48;34.88;;;3.10;100.00;;;;;;4994909;28;20057;-79
2023/02/15 09:41:53;;;;;;;184.35;36.45;;;3.10;100.00;;;;;;4996664;28;20071;-79
2023/02/15 09:44:57;;;;;;;139.68;33.05;;;3.20;100.00;;;;;;5001698;28;20528;-77
2023/02/15 09:47:58;;;;;;;153.32;35.13;;;3.40;100.00;;;;;;5011763;28;20053;-79
2023/02/15 09:50:41;;;;;;;160.57;37.03;;;3.30;99.20;;;;;;5007250;28;20055;-78
2023/02/15 09:53:27;;;;;;;151.30;35.17;;;3.30;99.80;;;;;;4996954;28;20495;-79
2023/02/15 09:56:03;;;;;;;144.45;34.25;;;3.30;98.70;;;;;;5010820;28;20049;-77
2023/02/15 09:58:39;;;;;;;158.73;36.88;;;3.30;99.30;;;;;;4995359;28;20572;-77
2023/02/15 10:01:21;;;;;;;139.93;35.15;;;3.50;99.60;;;;;;4995235;28;20096;-77
2023/02/15 10:04:03;;;;;;;165.93;35.88;;;3.60;98.90;;;;;;4998846;28;20058;-77
2023/02/15 10:06:48;;;;;;;138.93;34.25;;;3.70;99.30;;;;;;4981042;28;20053;-78
2023/02/15 10:09:34;;;;;;;148.18;34.50;;;3.90;98.10;;;;;;4997611;28;20046;-77
2023/02/15 10:12:38;;;;;;;154.00;37.63;;;4.20;97.50;;;;;;4989504;28;20064;-77
2023/02/15 10:15:11;;;;;;;150.63;36.35;;;4.30;95.00;;;;;;4995541;28;20140;-76
2023/02/15 10:18:03;;;;;;;166.65;37.63;;;4.30;95.00;;;;;;4989478;28;20058;-77
2023/02/15 10:21:02;;;;;;;156.50;36.63;;;4.40;93.90;;;;;;4990734;28;20049;-78
2023/02/15 10:23:52;;;;;;;139.68;34.92;;;4.50;94.80;;;;;;4991075;28;20056;-78
2023/02/15 10:26:27;;;;;;;139.75;35.22;;;4.90;94.40;;;;;;4991432;28;20048;-78
2023/02/15 10:29:17;;;;;;;128.32;34.60;;;5.10;93.00;;;;;;4989702;28;20049;-78
2023/02/15 10:31:51;;;;;;;131.45;35.25;;;5.20;92.50;;;;;;4999156;28;20057;-77
2023/02/15 10:34:37;;;;;;;149.80;37.70;;;5.60;92.10;;;;;;4991374;28;20084;-77
2023/02/15 10:37:38;;;;;;;133.75;36.63;;;5.80;91.00;;;;;;4995329;28;20502;-78
2023/02/15 10:40:24;;;;;;;134.32;37.22;;;6.10;89.50;;;;;;5003321;28;20046;-77
2023/02/15 10:43:09;;;;;;;153.80;38.72;;;5.90;88.10;;;;;;4997184;28;20053;-75
2023/02/15 10:45:43;;;;;;;131.52;36.20;;;6.00;88.40;;;;;;4989734;28;20244;-75
2023/02/15 10:48:34;;;;;;;134.93;37.37;;;6.00;87.50;;;;;;4992364;28;20520;-76
2023/02/15 10:51:05;;;;;;;135.27;34.08;;;5.90;86.60;;;;;;5002274;28;20050;-76
2023/02/15 10:53:31;;;;;;;121.63;36.78;;;5.70;87.40;;;;;;5004439;28;20757;-76
2023/02/15 10:56:19;;;;;;;123.38;34.17;;;5.50;88.50;;;;;;5004116;28;20054;-75
2023/02/15 10:59:01;;;;;;;126.85;32.85;;;5.60;89.50;;;;;;4989631;28;20054;-82
2023/02/15 11:01:53;;;;;;;128.38;34.75;;;5.70;89.00;;;;;;5003433;28;20401;-83
2023/02/15 11:04:45;;;;;;;114.40;33.38;;;5.70;89.20;;;;;;5011340;28;20054;-83
2023/02/15 11:07:39;;;;;;;119.28;34.47;;;5.80;88.40;;;;;;5005901;28;20624;-83
2023/02/15 11:10:24;;;;;;;122.38;34.28;;;5.80;87.70;;;;;;4995635;28;20750;-83
2023/02/15 11:12:52;;;;;;;113.05;31.65;;;5.70;87.10;;;;;;5013444;28;20054;-83
2023/02/15 11:15:43;;;;;;;113.47;33.05;;;5.60;87.00;;;;;;5006730;28;20058;-83
2023/02/15 11:18:30;;;;;;;120.72;34.72;;;5.50;87.70;;;;;;4999025;28;20062;-83
2023/02/15 11:21:03;;;;;;;112.93;33.40;;;5.40;88.80;;;;;;5002469;28;20051;-83
2023/02/15 11:23:33;;;;;;;116.85;33.75;;;5.40;89.40;;;;;;5012357;28;20072;-83
2023/02/15 11:26:11;;;;;;;122.10;36.45;;;5.50;89.90;;;;;;4990239;28;20050;-83
2023/02/15 11:28:46;;;;;;;113.50;34.10;;;5.60;88.70;;;;;;5006942;28;20515;-81
2023/02/15 11:31:20;;;;;;;110.40;34.47;;;5.80;89.30;;;;;;5010350;28;20069;-85
2023/02/15 11:34:00;;;;;;;119.10;36.03;;;5.80;88.70;;;;;;5004960;28;20482;-82
2023/02/15 11:36:38;;;;;;;121.38;36.25;;;5.90;88.10;;;;;;4999144;28;20453;-82
2023/02/15 11:39:15;;;;;;;130.65;36.25;;;6.00;88.30;;;;;;5002210;28;20072;-83
2023/02/15 11:41:51;;;;;;;107.97;35.25;;;6.10;87.80;;;;;;4992145;28;20049;-77
2023/02/15 11:44:27;;;;;;;116.50;35.97;;;6.20;88.10;;;;;;5010790;28;20637;-78
2023/02/15 11:46:54;;;;;;;131.95;38.80;;;6.20;88.80;;;;;;4988497;28;20057;-79
2023/02/15 11:49:37;;;;;;;110.03;35.22;;;6.40;86.60;;;;;;5000230;28;20581;-77
2023/02/15 11:52:13;;;;;;;121.97;35.95;;;6.50;87.40;;;;;;5002797;28;20067;-77
2023/02/15 11:54:44;;;;;;;116.50;36.45;;;6.60;87.10;;;;;;5003434;28;20065;-77
2023/02/15 11:57:38;;;;;;;121.25;35.10;;;6.80;86.00;;;;;;4997100;28;20057;-76
2023/02/15 12:00:23;;;;;;;108.97;34.30;;;6.80;85.20;;;;;;4985104;28;20053;-77
2023/02/15 12:02:54;;;;;;;118.88;35.78;;;6.50;85.80;;;;;;4998772;28;20080;-78
2023/02/15 12:05:24;;;;;;;110.10;35.80;;;6.60;86.40;;;;;;4988868;28;20610;-77
2023/02/15 12:08:00;;;;;;;111.25;33.90;;;6.60;85.90;;;;;;4994701;28;20080;-78
2023/02/15 12:10:36;;;;;;;105.60;34.13;;;6.50;85.90;;;;;;5014782;28;20499;-78
2023/02/15 12:13:13;;;;;;;114.10;34.70;;;6.50;85.80;;;;;;5009833;28;20409;-78
2023/02/15 12:15:49;;;;;;;113.05;34.85;;;6.40;86.40;;;;;;5008711;28;20553;-78
2023/02/15 12:18:39;;;;;;;108.65;33.55;;;6.40;87.20;;;;;;4996102;28;20147;-78
2023/02/15 12:21:13;;;;;;;116.97;35.28;;;6.30;87.60;;;;;;5010815;28;20050;-78
2023/02/15 12:23:56;;;;;;;109.70;34.85;;;6.40;87.70;;;;;;5003190;28;20046;-78
2023/02/15 12:26:35;;;;;;;105.10;34.28;;;6.50;86.90;;;;;;4983278;28;20094;-78
2023/02/15 12:29:13;;;;;;;102.10;35.72;;;6.70;87.10;;;;;;4991493;28;20061;-77
2023/02/15 12:31:43;;;;;;;111.45;34.83;;;6.60;86.60;;;;;;4993311;28;20057;-77
2023/02/15 12:34:28;;;;;;;106.30;32.53;;;6.50;87.00;;;;;;5011169;28;20053;-78
2023/02/15 12:37:01;;;;;;;105.77;30.83;;;6.40;87.00;;;;;;5002412;28;20053;-78
2023/02/15 12:39:31;;;;;;;89.82;27.90;;;6.20;87.50;;;;;;4983735;28;20510;-77
2023/02/15 12:42:05;;;;;;;100.00;31.95;;;6.10;88.10;;;;;;5005065;28;20164;-77
2023/02/15 12:44:35;;;;;;;100.32;31.77;;;6.00;88.60;;;;;;4998716;28;20275;-77
2023/02/15 12:47:15;;;;;;;93.40;30.38;;;6.10;89.30;;;;;;5001235;28;20050;-77
2023/02/15 12:49:43;;;;;;;103.80;33.63;;;6.20;88.70;;;;;;4997828;28;20054;-77
2023/02/15 12:52:20;;;;;;;98.25;31.33;;;6.20;88.00;;;;;;4994848;28;20168;-77
2023/02/15 12:54:47;;;;;;;104.47;32.85;;;6.20;88.50;;;;;;4992891;28;20741;-77
2023/02/15 12:57:28;;;;;;;94.60;29.67;;;6.10;88.20;;;;;;5007475;28;20080;-77
2023/02/15 12:59:58;;;;;;;99.18;30.23;;;6.00;88.60;;;;;;4995573;28;20491;-77
2023/02/15 13:02:40;;;;;;;96.57;29.15;;;5.90;88.50;;;;;;5016934;28;20611;-80
2023/02/15 13:05:27;;;;;;;90.93;28.38;;;5.80;88.60;;;;;;4990879;28;20062;-80
2023/02/15 13:07:58;;;;;;;97.43;28.15;;;5.70;88.70;;;;;;4991256;28;20056;-82
2023/02/15 13:10:35;;;;;;;90.40;27.73;;;5.60;89.50;;;;;;4989130;28;20355;-83